Terminal Aerodrome Forecast
Issued by NWS

Home | Current Version | Previous Version | Text Only | Print | Product List | Glossary On
Versions: 1 2 3 4 5 6 7 8 9 10 11 12
696
FTUS43 KOAX 231121
TAFCDR
TAF
KCDR 231121Z 2312/2412 31010KT P6SM -SHRA BKN060
     FM231400 33013KT P6SM SKC
     FM231700 32014G22KT P6SM SKC
     FM240100 VRB03KT P6SM SKC=

USA.gov is the U.S. government's official web portal to all federal, state and local government web resources and services.